Latest Weather Observations for Strahan

IDT60801

Issued at 7:01 pm EST Wednesday 26 June 2019 (issued every 10 minutes, with the page automatically refreshed every 10 minutes)

About weather observations | Map of weather stations | Latest weather observations for TAS | Other Formats
Station Details ID: 097072 Name: STRAHAN AERODROME Lat: -42.16 Lon: 145.29 Height: 21.0 m
Data from the previous 72 hours. | See also: Recent months at Strahan
Date/Time
EST
Temp
°C
App
Temp
°C
Dew
Point
°C
Rel
Hum
%
Delta-T
°C
Wind Press
QNH
hPa
Press
MSL
hPa
Rain since
9am
mm
Dir  Spd
km/h
Gust
km/h
Spd
kts
Gust
kts
26/07:00pm 9.7 6.1 6.6 81 1.4 NNE 15 17 8 9 1031.5 1031.5 0.2
26/06:30pm 10.1 6.8 6.6 79 1.6 NNE 13 17 7 9 1031.3 1031.3 0.2
26/06:00pm 10.8 7.2 6.9 77 1.8 NNE 15 19 8 10 1031.3 1031.3 0.2
26/05:30pm 11.0 7.9 7.3 78 1.8 NNE 13 19 7 10 1031.3 1031.3 0.2
26/05:00pm 11.8 8.8 7.5 75 2.1 NNE 13 15 7 8 1031.3 1031.3 0.2
26/04:30pm 12.5 9.6 8.0 74 2.2 N 13 20 7 11 1031.3 1031.3 0.2
26/04:00pm 12.9 10.4 8.4 74 2.2 N 11 19 6 10 1031.7 1031.7 0.2
26/03:30pm 13.9 10.6 8.1 68 2.9 N 15 19 8 10 1031.7 1031.7 0.2
26/03:00pm 14.8 11.1 8.1 64 3.3 N 17 24 9 13 1031.7 1031.7 0.0
26/02:30pm 15.0 10.9 8.0 63 3.5 N 19 30 10 16 1031.8 1031.8 0.0
26/02:00pm 15.2 11.4 7.7 61 3.7 N 17 26 9 14 1032.0 1032.0 0.0
26/01:30pm 15.1 10.7 7.6 61 3.7 N 20 32 11 17 1032.2 1032.2 0.0
26/01:00pm 15.0 10.6 7.5 61 3.7 N 20 28 11 15 1032.6 1032.6 0.0
26/12:30pm 15.2 11.1 7.7 61 3.7 N 19 26 10 14 1032.9 1032.9 0.0
26/12:00pm 14.5 10.3 7.3 62 3.5 N 19 26 10 14 1033.4 1033.4 0.0
26/11:30am 13.5 9.1 6.4 62 3.4 NNE 19 28 10 15 1033.6 1033.6 0.0
26/11:00am 13.0 8.6 6.4 64 3.1 NNE 19 30 10 16 1034.0 1034.0 0.0
26/10:30am 11.8 8.4 5.9 67 2.8 NNE 13 20 7 11 1034.2 1034.2 0.0
26/10:00am 10.7 6.4 5.3 69 2.4 NNE 17 24 9 13 1034.4 1034.4 0.0
26/09:30am 9.3 5.3 4.7 73 2.0 NNE 15 20 8 11 1034.4 1034.4 0.0
26/09:00am 7.9 3.4 4.1 77 1.6 NNE 17 20 9 11 1034.3 1034.3 -
26/08:30am 6.8 2.6 3.6 80 1.4 NNE 15 20 8 11 1034.1 1034.1 -
26/08:00am 6.2 1.9 3.4 82 1.2 NNE 15 20 8 11 1034.0 1034.0 -
26/07:30am 5.9 1.6 3.2 83 1.1 NNE 15 20 8 11 1033.9 1033.9 -
26/07:00am 6.3 2.1 3.6 83 1.1 NNE 15 20 8 11 1033.7 1033.7 -
26/06:30am 6.3 2.1 3.8 84 1.1 NNE 15 19 8 10 1033.5 1033.5 -
26/06:00am 6.4 2.2 3.9 84 1.1 NNE 15 19 8 10 1033.3 1033.3 -
26/05:30am 6.6 2.9 4.3 85 1.0 NNE 13 20 7 11 1033.3 1033.3 -
26/05:00am 6.5 2.8 4.3 86 0.9 NNE 13 17 7 9 1033.2 1033.2 -
26/04:30am 6.7 3.0 4.7 87 0.9 NNE 13 17 7 9 1033.2 1033.2 -
26/04:00am 6.9 2.9 5.1 88 0.8 NNE 15 17 8 9 1033.2 1033.2 -
26/03:30am 7.0 3.4 5.2 88 0.8 NNE 13 17 7 9 1033.2 1033.2 -
26/03:00am 7.3 3.4 5.3 87 0.9 NNE 15 19 8 10 1033.2 1033.2 0.0
26/02:30am 7.4 3.5 5.4 87 0.9 NNE 15 19 8 10 1033.2 1033.2 -
26/02:00am 7.4 3.9 5.5 88 0.8 NNE 13 17 7 9 1033.1 1033.1 -
26/01:30am 7.4 3.9 5.4 87 0.9 NNE 13 15 7 8 1033.0 1033.0 -
26/01:00am 7.7 4.3 5.7 87 0.9 NNE 13 19 7 10 1033.2 1033.2 -
26/12:30am 8.2 4.8 5.8 85 1.1 NNE 13 19 7 10 1033.3 1033.3 -
26/12:00am 8.4 4.6 5.9 84 1.1 NNE 15 20 8 11 1033.4 1033.4 -
 
Date/Time
EST
Temp
°C
App
Temp
°C
Dew
Point
°C
Rel
Hum
%
Delta-T
°C
Wind Press
QNH
hPa
Press
MSL
hPa
Rain since
9am
mm
Dir  Spd
km/h
Gust
km/h
Spd
kts
Gust
kts
25/11:30pm 8.5 5.1 6.0 84 1.1 NNE 13 19 7 10 1033.6 1033.6 -
25/11:00pm 8.6 4.8 5.9 83 1.2 NNE 15 20 8 11 1033.6 1033.6 -
25/10:30pm 8.6 5.2 5.9 83 1.2 NNE 13 17 7 9 1033.6 1033.6 -
25/10:00pm 8.7 5.2 5.6 81 1.4 NNE 13 19 7 10 1033.5 1033.5 -
25/09:30pm 9.2 5.4 5.8 79 1.6 N 15 20 8 11 1033.4 1033.4 -
25/09:00pm 8.9 5.5 5.8 81 1.4 NNE 13 17 7 9 1033.3 1033.3 -
25/08:30pm 8.7 5.2 5.6 81 1.4 N 13 17 7 9 1033.1 1033.1 -
25/08:00pm 9.0 5.5 5.6 79 1.5 NNE 13 17 7 9 1033.0 1033.0 -
25/07:30pm 8.5 4.9 5.1 79 1.5 N 13 15 7 8 1032.8 1032.8 -
25/07:00pm 9.1 6.0 5.7 79 1.5 N 11 13 6 7 1032.6 1032.6 -
25/06:30pm 9.6 6.5 5.6 76 1.8 N 11 17 6 9 1032.2 1032.2 -
25/06:00pm 10.4 7.0 5.8 73 2.1 NNE 13 17 7 9 1031.9 1031.9 -
25/05:30pm 10.7 7.3 6.1 73 2.1 N 13 19 7 10 1031.7 1031.7 -
25/05:00pm 11.1 7.0 6.0 71 2.4 N 17 20 9 11 1031.7 1031.7 -
25/04:30pm 11.5 7.4 6.2 70 2.5 N 17 22 9 12 1031.6 1031.6 -
25/04:00pm 12.3 8.2 6.1 66 2.9 N 17 24 9 13 1031.5 1031.5 -
25/03:32pm 12.6 9.0 6.6 67 2.9 N 15 20 8 11 1031.4 1031.4 -
25/03:30pm 12.5 8.5 6.5 67 2.9 N 17 24 9 13 1031.4 1031.4 -
25/03:00pm 12.8 8.8 6.6 66 2.9 N 17 28 9 15 1031.3 1031.3 -
25/02:30pm 12.9 - 6.5 65 3.1 - - - - - 1031.4 1031.4 -
25/01:00pm 13.3 8.9 6.4 63 3.3 N 19 30 10 16 1032.1 1032.1 0.0
25/12:30pm 13.7 9.1 5.8 59 3.7 N 19 28 10 15 1032.1 1032.1 0.0
25/12:00pm 13.5 8.9 6.4 62 3.4 N 20 30 11 16 1032.3 1032.3 0.0
25/11:30am 13.1 8.0 6.0 62 3.4 N 22 33 12 18 1032.4 1032.4 0.0
25/11:00am 12.4 7.5 4.9 60 3.4 N 20 32 11 17 1032.6 1032.6 0.0
25/10:30am 11.3 6.3 4.7 64 3.0 NNE 20 30 11 16 1032.6 1032.6 0.0
25/10:00am 10.7 5.7 4.8 67 2.6 NNE 20 32 11 17 1032.3 1032.3 0.0
25/09:30am 10.1 5.2 4.9 70 2.3 NNE 20 28 11 15 1032.4 1032.4 0.0
25/09:00am 8.8 4.3 4.4 74 1.9 NNE 17 24 9 13 1032.3 1032.3 0.0
25/08:30am 7.8 3.3 4.2 78 1.6 NNE 17 30 9 16 1032.4 1032.4 0.0
25/08:00am 6.8 2.6 3.8 81 1.3 NNE 15 22 8 12 1032.4 1032.4 0.0
25/07:30am 6.8 1.8 3.6 80 1.4 NNE 19 24 10 13 1032.1 1032.1 0.0
25/07:00am 6.8 2.2 3.6 80 1.3 NNE 17 22 9 12 1031.8 1031.8 0.0
25/06:30am 6.8 2.2 3.6 80 1.4 NNE 17 22 9 12 1031.7 1031.7 0.0
25/06:00am 6.9 2.6 3.5 79 1.4 NNE 15 22 8 12 1031.5 1031.5 0.0
25/05:30am 7.1 2.1 3.7 79 1.4 NNE 19 24 10 13 1031.3 1031.3 0.0
25/05:00am 6.7 2.1 3.9 82 1.2 NNE 17 24 9 13 1031.3 1031.3 0.0
25/04:30am 6.1 2.2 3.6 84 1.1 NNE 13 17 7 9 1031.6 1031.6 0.0
25/04:00am 6.2 1.9 3.4 82 1.2 NNE 15 19 8 10 1031.6 1031.6 0.0
25/03:30am 6.3 1.6 3.3 81 1.3 NNE 17 22 9 12 1031.6 1031.6 0.0
25/03:00am 6.4 1.7 3.4 81 1.2 NNE 17 22 9 12 1031.7 1031.7 0.0
25/02:30am 6.2 2.3 3.4 82 1.2 NNE 13 19 7 10 1031.9 1031.9 0.0
25/02:00am 6.3 1.7 3.5 82 1.2 NNE 17 20 9 11 1031.7 1031.7 0.0
25/01:30am 6.5 1.9 3.7 82 1.2 NNE 17 22 9 12 1031.6 1031.6 0.0
25/01:00am 6.4 1.8 3.7 83 1.1 NNE 17 22 9 12 1031.5 1031.5 0.0
25/12:30am 6.4 1.4 3.7 83 1.1 NNE 19 24 10 13 1031.8 1031.8 0.0
25/12:00am 6.1 1.1 3.6 84 1.0 NNE 19 24 10 13 1032.0 1032.0 0.0
 
Date/Time
EST
Temp
°C
App
Temp
°C
Dew
Point
°C
Rel
Hum
%
Delta-T
°C
Wind Press
QNH
hPa
Press
MSL
hPa
Rain since
9am
mm
Dir  Spd
km/h
Gust
km/h
Spd
kts
Gust
kts
24/11:30pm 5.7 1.1 3.5 86 0.9 NNE 17 22 9 12 1032.3 1032.3 0.0
24/11:00pm 5.3 1.0 3.3 87 0.8 NNE 15 20 8 11 1032.4 1032.4 0.0
24/10:30pm 4.9 0.9 3.1 88 0.7 NNE 13 17 7 9 1032.6 1032.6 0.0
24/10:00pm 3.9 1.0 2.6 91 0.5 N 7 11 4 6 1032.5 1032.5 0.0
24/09:30pm 3.3 0.3 1.7 89 0.6 N 7 9 4 5 1032.6 1032.6 0.0
24/09:00pm 4.2 0.5 2.6 89 0.6 N 11 13 6 7 1032.8 1032.8 0.0
24/08:30pm 5.4 1.5 3.4 87 0.8 NNE 13 15 7 8 1032.7 1032.7 0.0
24/08:00pm 5.9 2.4 3.7 86 0.9 NE 11 13 6 7 1032.7 1032.7 0.0
24/07:30pm 6.3 2.5 3.8 84 1.1 NNE 13 17 7 9 1032.6 1032.6 0.0
24/07:00pm 6.3 2.1 3.8 84 1.0 NNE 15 19 8 10 1032.5 1032.5 0.0
24/06:30pm 6.7 2.5 4.0 83 1.2 NNE 15 19 8 10 1032.5 1032.5 0.0
24/06:00pm 6.7 3.0 4.2 84 1.1 NE 13 15 7 8 1032.6 1032.6 0.0
24/05:30pm 7.5 3.4 4.6 82 1.3 NNE 15 17 8 9 1032.7 1032.7 0.0
24/05:00pm 7.7 4.4 4.7 81 1.3 N 11 13 6 7 1032.7 1032.7 0.0
24/04:30pm 9.2 6.2 5.9 80 1.5 NNE 11 13 6 7 1032.4 1032.4 0.0
24/04:00pm 10.3 8.2 6.6 78 1.7 NE 7 9 4 5 1032.3 1032.3 0.0
24/03:30pm 10.8 7.4 6.0 72 2.2 NNW 13 17 7 9 1032.3 1032.3 0.0
24/03:00pm 11.2 7.1 6.1 71 2.4 NW 17 20 9 11 1032.2 1032.2 0.0
24/02:30pm 11.7 7.6 6.0 68 2.7 WNW 17 22 9 12 1032.2 1032.2 0.0
24/02:00pm 11.9 7.7 5.5 65 2.9 NW 17 26 9 14 1032.1 1032.1 0.0
24/01:30pm 11.7 7.0 5.1 64 3.0 NW 19 24 10 13 1032.1 1032.1 0.0
24/01:00pm 11.6 7.6 5.0 64 3.0 NW 15 20 8 11 1032.1 1032.1 0.0
24/12:30pm 12.1 8.7 5.7 65 3.0 NNW 13 17 7 9 1032.2 1032.2 0.0
24/12:00pm 11.4 8.0 5.7 68 2.6 N 13 20 7 11 1032.6 1032.6 0.0
24/11:30am 9.7 6.0 4.3 69 2.4 NNE 13 19 7 10 1032.8 1032.8 0.0
24/11:00am 8.9 5.2 4.3 73 2.0 NNE 13 17 7 9 1033.2 1033.2 0.0
24/10:30am 7.5 3.3 3.7 77 1.6 NE 15 22 8 12 1033.7 1033.7 0.0
24/10:00am 6.3 2.4 3.3 81 1.2 NE 13 19 7 10 1033.9 1033.9 0.0
24/09:30am 5.2 1.9 2.7 84 1.0 NE 9 15 5 8 1033.7 1033.7 0.0
24/09:00am 4.2 1.3 2.7 90 0.6 ENE 7 11 4 6 1033.6 1033.6 0.2
24/08:30am 3.1 -0.3 1.9 92 0.5 NE 9 13 5 7 1033.5 1033.5 0.2
24/08:00am 2.2 -1.3 1.0 92 0.4 NE 9 9 5 5 1033.3 1033.3 0.2
24/07:30am 2.4 -1.5 1.4 93 0.4 NNE 11 11 6 6 1033.2 1033.2 0.2
24/07:00am 2.1 -1.0 1.2 94 0.3 NE 7 9 4 5 1033.3 1033.3 0.2
24/06:30am 1.8 -0.4 0.8 93 0.4 ENE 2 7 1 4 1033.1 1033.1 0.2
24/06:00am 2.2 -1.3 1.2 93 0.4 NE 9 11 5 6 1032.9 1032.9 0.2
24/05:30am 2.3 -0.8 1.3 93 0.4 NE 7 11 4 6 1032.9 1032.9 0.2
24/05:00am 2.3 -0.8 1.4 94 0.3 NE 7 11 4 6 1033.2 1033.2 0.2
24/04:30am 2.5 -0.6 1.6 94 0.3 NE 7 11 4 6 1033.3 1033.3 0.2
24/04:00am 2.5 -0.6 1.6 94 0.3 NE 7 9 4 5 1033.2 1033.2 0.2
24/03:30am 2.7 -0.7 1.8 94 0.3 NE 9 11 5 6 1033.3 1033.3 0.2
24/03:00am 2.8 -0.6 1.8 93 0.4 NNE 9 13 5 7 1033.5 1033.5 0.2
24/02:30am 3.1 -1.0 2.2 94 0.4 NNE 13 15 7 8 1033.7 1033.7 0.2
24/02:00am 3.2 -0.5 2.3 94 0.4 NNE 11 15 6 8 1033.6 1033.6 0.0
24/01:30am 3.2 -0.5 2.3 94 0.4 NNE 11 15 6 8 1033.6 1033.6 0.0
24/01:00am 3.2 -0.5 2.2 93 0.4 NNE 11 15 6 8 1033.5 1033.5 0.0
24/12:30am 3.3 0.0 2.3 93 0.4 NE 9 13 5 7 1033.5 1033.5 0.0
24/12:00am 3.5 -0.2 2.5 93 0.4 NNE 11 13 6 7 1033.4 1033.4 0.0
 
Date/Time
EST
Temp
°C
App
Temp
°C
Dew
Point
°C
Rel
Hum
%
Delta-T
°C
Wind Press
QNH
hPa
Press
MSL
hPa
Rain since
9am
mm
Dir  Spd
km/h
Gust
km/h
Spd
kts
Gust
kts
23/11:30pm 3.8 0.6 2.9 94 0.4 NNE 9 13 5 7 1033.3 1033.3 0.0
23/11:00pm 3.9 1.1 3.0 94 0.4 NNE 7 9 4 5 1033.2 1033.2 0.0
23/10:30pm 4.4 1.3 3.4 93 0.4 NNE 9 11 5 6 1032.8 1032.8 0.0
23/10:00pm 5.7 3.4 4.8 94 0.4 NNE 6 7 3 4 1032.7 1032.7 0.0
23/09:30pm 6.0 4.2 5.4 96 0.3 ENE 4 7 2 4 1032.8 1032.8 0.0
23/09:00pm 6.0 4.2 5.4 96 0.3 ENE 4 9 2 5 1032.9 1032.9 0.0
23/08:30pm 5.9 4.8 5.3 96 0.3 CALM 0 0 0 0 1032.9 1032.9 0.0
23/08:00pm 5.7 3.8 5.0 95 0.3 NE 4 6 2 3 1032.8 1032.8 0.0
23/07:30pm 5.9 4.8 5.2 95 0.3 CALM 0 0 0 0 1032.5 1032.5 0.0

Other formats

Comma delimited format used in spreadsheet applications
http://www.bom.gov.au/fwo/IDT60801/IDT60801.94956.axf

JavaScript Object Notation format (JSON) in row-major order
http://www.bom.gov.au/fwo/IDT60801/IDT60801.94956.json

Data quality

Most of these data are generated automatically and are frequently updated. Quality checks on data are not normally performed. It is possible for incorrect values to appear. Refer to information at About Latest Weather Observations and please check the disclaimer before using these data.